Szeged, Hongarije

8:37 AM CEST op 23 oktober 2014 (GMT +0200)
Szeged | Change Station
CLOSE
Current Station
Persoonlijk weerstation
Location: Szeged, CSONGRaD
Geometrische hoogte: 262 ft
Nabije weerstations

Hoogte 262 ft 46.24 °N, 20.11 °E | Updated 8 seconds ago

Mostly Cloudy
Merendeels bewolkt
45.1 °F
Voelt als 45 °F
N
1.0
Wind Variabel Wind van zuid
Gusts 2.9 mijl/u

Vandaag
Hoog -- | Laag -- °F
--% Kans op neerslag
Gisteren
Hoog -- | Laag -- °F
Precip. -- inches
7:07 AM 5:39 PM
Afnemende halvemaan, 0% visible
Druk 29.68 inches
Zicht 6.2 mijlen
Wolken Gering 800 ft
Licht bewolkt 1900 ft
Merendeels bewolkt 4400 ft
Gevoelstemperatuur 45 °F
Dauwpunt 42 °F
Vochtigheid 90%
Neerslag 0.00 inches
Dikte sneeuw Niet beschikbaar.
UV 0 van de 12
Pollen Niet beschikbaar.
Luchtkwaliteit Niet beschikbaar.
Flu Activity Niet beschikbaar.
METAR LRAR 230630Z 29002KT 9999 FEW008 SCT019 BKN044 07/07 Q1005 R09/29//95

More Conditions Fewer Conditions

Druk 29.68 inches
Zicht 6.2 mijlen
Wolken Gering 800 ft
Licht bewolkt 1900 ft
Merendeels bewolkt 4400 ft
Gevoelstemperatuur 45 °F
Dauwpunt 42 °F
Vochtigheid 90%
Neerslag 0.00 inches
Dikte sneeuw Niet beschikbaar.
UV 0 van de 12
Pollen Niet beschikbaar.
Luchtkwaliteit Niet beschikbaar.
Flu Activity Niet beschikbaar.
METAR LRAR 230630Z 29002KT 9999 FEW008 SCT019 BKN044 07/07 Q1005 R09/29//95

More Conditions Fewer Conditions

10-Day Weather Forecast

Almanac

Astronomie

Oct. 23, 2014 Opkomst Ondergang
Werkelijke tijd 7:07 AM CEST 5:39 PM CEST
Burgerlijke schemering 6:36 AM CEST 6:10 PM CEST
Nautische schemering 6:01 AM CEST 6:45 PM CEST
Astronomische schemering 5:26 AM CEST 7:20 PM CEST
Maan 6:27 AM CEST 5:31 PM CEST
Golflengte van het zichtbare licht 11h 33m
Daglengte
10h 32m
Tomorrow will be 3m 5s shorter.
Afnemende halvemaan, 0% of the Moon is Illuminated
Vandaag
Afnemende halvemaan
oktober 23
Nieuw
oktober 30
Eerste kwartier
nov 6
Volle maan
nov 14
Laatste kwartier

Extremen gisteren

Country Highs Country Lows

Community

WunderPhotos

Upload Photos

1,764,194 foto’s ge-upload!

Nearby

Luchtkwaliteit

Not available.

Dikte sneeuw

Not available.

Aardbevingen

Stad Distance Mag. Time & Date
No recent earthquake activity has been reported nearby.
Minimum magnitude displayed is 2.5.

Watertemperatuur langs de kust

Plaats Temperatuur
Geen meldingen van stations

Nabije weerstations